Terminal Aerodrome Forecast
Issued by NWS

Home | Current Version | Previous Version | Graphics & Text | Print | Product List | Glossary On
Versions: 1 2 3 4 5 6 7 8 9 10 11 12 13 14 15
000
FTUS43 KICT 250520
TAFRSL
TAF
KRSL 250520Z 2506/2606 31007KT P6SM SCT080
     FM251100 26007KT P6SM SCT080
     FM251700 22016G23KT P6SM BKN100
     FM260000 22015KT P6SM SCT060 BKN080=

USA.gov is the U.S. government's official web portal to all federal, state and local government web resources and services.